Flight Track Log - Related Links

Times and Time Zones

All times are in EDT time to prevent confusion due to time zone crossing. See the VH-OWB flight status page for this flight to view local times or setup timezone preferences in your user account.

Time Position Orientation Groundspeed Altitude Reporting Facility
EDT Latitude Longitude Course Direction KTS MPH feet Rate Location/Type
Wed 04:33:09 AM -34.8370 117.7374 331° Northwest 20,000  Level Aus
Wed 04:33:14 AM -34.8370 117.7374 331° Northwest 20,000 -29 Level Aus
Wed 04:34:38 AM -34.7805 117.7013 331° Northwest 20,000 -29 Level Aus
Wed 04:35:54 AM -34.7240 117.6652 331° Northwest 20,000 -32 Level Aus
Wed 04:36:00 AM -34.7175 117.6610 332° Northwest  Level FlightAware
Wed 04:37:00 AM -34.6732 117.6328 332° Northwest  Level FlightAware
Wed 04:38:00 AM -34.6271 117.6034 332° Northwest  Level FlightAware
Wed 04:39:00 AM -34.5809 117.5741 332° Northwest  Level FlightAware
Wed 04:40:00 AM -34.5348 117.5447 332° Northwest  Level FlightAware
Wed 04:41:00 AM -34.4886 117.5154 332° Northwest  Level FlightAware
Wed 04:42:00 AM -34.4425 117.4862 332° Northwest  Level FlightAware
Wed 04:43:00 AM -34.3963 117.4569 332° Northwest  Level FlightAware
Wed 04:44:00 AM -34.3501 117.4277 332° Northwest  Level FlightAware
Wed 04:44:05 AM -34.3846 117.4495 326° Northwest 20,000  Level Aus
Wed 04:44:43 AM -34.3846 117.4495 326° Northwest 20,000 -79 Level Aus
Wed 04:46:00 AM -34.3262 117.4126 332° Northwest  Level FlightAware
Wed 04:46:32 AM -34.3280 117.4138 319° Northwest 20,000  Level Aus
Wed 04:47:00 AM -34.2807 117.3839 332° Northwest  Level FlightAware
Wed 04:48:00 AM -34.2612 117.3716 332° Northwest  Level FlightAware
Wed 04:49:00 AM -34.2157 117.3430 332° Northwest  Level FlightAware
Wed 04:50:00 AM -34.1701 117.3143 332° Northwest  Level FlightAware
Wed 04:50:25 AM -34.2842 117.3675 332° Northwest 206 237 19,500  Level Aus
Wed 04:50:50 AM -34.2626 117.3549 334° Northwest 206 237 19,500  Level Aus
Wed 04:51:25 AM -34.2327 117.3359 332° Northwest 208 239 19,500  Level Aus
Wed 04:52:00 AM -34.2018 117.3171 333° Northwest 214 246 19,500  Level Aus
Wed 04:52:35 AM -34.1722 117.2943 327° Northwest 215 247 19,500  Level Aus
Wed 04:53:25 AM -34.1285 117.2648 331° Northwest 217 250 19,500  Level Aus
Wed 04:53:45 AM -34.1114 117.2527 330° Northwest 215 247 19,500  Level Aus
Wed 04:54:25 AM -34.0767 117.2300 332° Northwest 210 242 19,500  Level Aus
Wed 04:55:15 AM -34.0331 117.2000 330° Northwest 214 246 19,500  Level Aus
Wed 04:55:40 AM -34.0120 117.1832 327° Northwest 214 246 19,500  Level Aus
Wed 04:56:15 AM -33.9814 117.1607 329° Northwest 218 251 19,500  Level Aus
Wed 04:57:00 AM -33.9422 117.1320 329° Northwest 220 253 19,500  Level Aus
Wed 04:57:39 AM -33.9064 117.1096 333° Northwest 211 243 19,500  Level Aus
Wed 04:58:24 AM -33.8688 117.0825 329° Northwest 207 238 19,500  Level Aus
Wed 04:58:50 AM -33.8482 117.0674 329° Northwest 205 236 19,500  Level Aus
Wed 04:59:24 AM -33.8193 117.0473 330° Northwest 204 235 19,500 -282 Level Aus
Wed 05:00:15 AM -33.7779 117.0206 332° Northwest 199 229 19,100 -675 Descending Aus
Wed 05:00:44 AM -33.7539 117.0054 332° Northwest 190 219 18,600 -1,015 Descending Aus
Wed 05:01:20 AM -33.7271 116.9856 328° Northwest 188 216 18,000 -1,026 Descending Aus
Wed 05:02:00 AM -33.6964 116.9649 331° Northwest 186 214 17,300 -1,063 Descending Aus
Wed 05:02:39 AM -33.6646 116.9411 328° Northwest 203 234 16,600 -1,000 Descending Aus
Wed 05:03:24 AM -33.6305 116.9166 329° Northwest 181 208 15,900 -868 Descending Aus
Wed 05:03:55 AM -33.6094 116.9023 330° Northwest 173 199 15,500 -738 Descending Aus
Wed 05:04:29 AM -33.5841 116.8872 334° Northwest 171 197 15,100 -809 Descending Aus
Wed 05:05:24 AM -33.5605 116.8467 305° West 146 168 14,300 -600 Descending Aus
Wed 05:05:49 AM -33.5500 116.8253 300° West 173 199 14,300 -100 Level Aus
Wed 05:06:24 AM -33.5277 116.8100 330° Northwest 163 188 14,200 -225 Descending Aus
Wed 05:07:09 AM -33.4985 116.7826 322° Northwest 174 200 14,000 -152 Descending Aus
Wed 05:07:43 AM -33.4744 116.7616 324° Northwest 179 206 14,000  Level Aus
Wed 05:08:29 AM -33.4389 116.7417 335° Northwest 190 219 14,000  Level Aus
Wed 05:08:53 AM -33.4159 116.7385 353° North 196 226 14,000  Level Aus
Wed 05:09:28 AM -33.3828 116.7413 North 200 230 14,000  Level Aus
Wed 05:10:18 AM -33.3356 116.7452 North 201 231 14,000  Level Aus
Wed 05:10:43 AM -33.3127 116.7506 11° North 196 226 14,000  Level Aus
Wed 05:11:18 AM -33.2786 116.7624 16° North 217 250 14,000  Level Aus
Wed 05:12:03 AM -33.2362 116.7571 354° North 207 238 14,000  Level Aus
Wed 05:12:38 AM -33.2072 116.7392 333° Northwest 201 231 14,000  Level Aus
Wed 05:13:28 AM -33.1660 116.7218 341° North 182 209 14,000  Level Aus
Wed 05:13:53 AM -33.1467 116.7148 343° North 174 200 14,000 100 Level Aus
Wed 05:14:28 AM -33.1185 116.7053 344° North 180 207 14,100  Climbing Aus
Wed 05:15:28 AM -33.0711 116.6841 339° North 178 205 14,000 -67 Descending Aus
Wed 05:15:58 AM -33.0497 116.6688 329° Northwest 178 205 14,000 92 Level Aus
Wed 05:16:33 AM -33.0238 116.6505 329° Northwest 182 209 14,100  Climbing Aus
Wed 05:17:28 AM -32.9874 116.6110 318° Northwest 191 220 14,000 800 Descending Aus
Wed 05:18:03 AM -32.9694 116.5843 309° West 175 201 15,300 1,059 Climbing Aus
Wed 05:18:53 AM -32.9455 116.5489 309° West 169 194 15,500 143 Climbing Aus
Wed 05:19:27 AM -32.9278 116.5173 304° West 190 219 15,500  Level Aus
Wed 05:20:22 AM -32.9006 116.4638 301° West 200 230 15,500  Level Aus
Wed 05:20:47 AM -32.8896 116.4367 296° West 208 239 15,500  Level Aus
Wed 05:21:12 AM -32.8771 116.4116 301° West 209 241 15,500  Level Aus
Wed 05:21:47 AM -32.8479 116.3873 325° Northwest 218 251 15,500  Level Aus
Wed 05:22:37 AM -32.8049 116.3550 328° Northwest 216 249 15,500  Level Aus
Wed 05:23:17 AM -32.7692 116.3316 331° Northwest 216 249 15,500  Level Aus
Wed 05:24:02 AM -32.7299 116.3043 330° Northwest 214 246 15,500  Level Aus
Wed 05:24:27 AM -32.7077 116.2890 330° Northwest 218 251 15,500  Level Aus
Wed 05:25:03 AM -32.6767 116.2687 331° Northwest 217 250 15,500  Level Aus
Wed 05:25:57 AM -32.6280 116.2360 331° Northwest 216 249 15,500  Level Aus
Wed 05:26:27 AM -32.6014 116.2180 330° Northwest 217 250 15,500 -92 Level Aus
Wed 05:27:02 AM -32.5698 116.1973 331° Northwest 221 254 15,400 -171 Descending Aus
Wed 05:27:37 AM -32.5380 116.1760 331° Northwest 223 257 15,300 -857 Descending Aus
Wed 05:28:12 AM -32.5059 116.1548 331° Northwest 222 255 14,400 -1,425 Descending Aus
Wed 05:28:57 AM -32.4679 116.1289 330° Northwest 203 234 13,400 -1,391 Descending Aus
Wed 05:29:21 AM -32.4478 116.1155 331° Northwest 196 226 12,800 -1,424 Descending Aus
Wed 05:29:56 AM -32.4198 116.0967 330° Northwest 193 222 12,000 -1,389 Descending Aus
Wed 05:30:56 AM -32.3666 116.0804 346° North 214 246 10,600 -1,326 Descending Aus
Wed 05:31:22 AM -32.3517 116.1107 60° Northeast 234 269 10,100 -1,400 Descending Aus
Wed 05:31:56 AM -32.3726 116.1507 122° Southeast 246 283 9,200 -1,443 Descending Aus
Wed 05:32:41 AM -32.4141 116.1761 153° Southeast 219 252 8,200 -1,425 Descending Aus
Wed 05:33:16 AM -32.4450 116.1856 165° South 195 224 7,300 -1,350 Descending Aus
Wed 05:34:01 AM -32.4656 116.1539 232° Southwest 152 175 6,400 -1,360 Descending Aus
Wed 05:34:31 AM -32.4609 116.1287 283° West 151 174 5,600 -1,569 Descending Aus
Wed 05:35:06 AM -32.4391 116.1091 323° Northwest 169 194 4,700 -914 Descending Aus
Wed 05:36:16 AM -32.3969 116.0816 331° Northwest 137 158 4,000 -568 Descending Aus
Wed 05:36:41 AM -32.3791 116.0781 351° North 151 174 3,800 -462 Descending Aus
Wed 05:37:21 AM -32.3466 116.0742 354° North 178 205 3,500 -141 Descending Aus
Wed 05:38:06 AM -32.3091 116.0724 358° North 177 204 3,600 76 Climbing Aus
Wed 05:38:40 AM -32.2813 116.0697 355° North 173 199 3,600  Level Aus
Wed 05:39:25 AM -32.2465 116.0668 356° North 167 192 3,600 -86 Level Aus
Wed 05:39:50 AM -32.2288 116.0652 356° North 155 178 3,500  Descending Aus
Wed 05:40:25 AM -32.2076 116.0634 356° North 133 153 3,600 -71 Climbing Aus
Wed 05:41:15 AM -32.1789 116.0564 348° North 124 143 3,400 -400 Descending Aus
Wed 05:41:40 AM -32.1740 116.0428 293° West 107 123 3,100 -600 Descending Aus
Wed 05:42:15 AM -32.1665 116.0256 297° West 99 114 2,800 -525 Descending Aus
Wed 05:43:00 AM -32.1558 116.0017 298° West 107 123 2,400 -600 Descending Aus
Wed 05:43:35 AM -32.1481 115.9838 297° West 101 116 2,000 -525 Descending Aus
Wed 05:44:20 AM -32.1394 115.9639 297° West 86 99 1,700 -429 Descending Aus
Wed 05:44:45 AM -32.1342 115.9523 298° West 92 106 1,500 -500 Descending Aus
Wed 05:45:20 AM -32.1264 115.9344 297° West 99 114 1,200 -514 Descending Aus
Wed 05:46:30 AM -32.1126 115.9047 299° West 79 91 600 -505 Descending Aus
Wed 05:46:55 AM -32.1090 115.8962 296° West 71 82 400 -500 Descending Aus
Wed 05:47:30 AM -32.1037 115.8829 295° West 73 84 100 -514 Descending Aus

Login

Don't have an account? Register now (free) for customized features, flight alerts, and more!